createdAt,value
2022-12-01T00:00:57.215Z,0.25
2022-12-01T00:03:57.548Z,0.25
2022-12-01T00:06:57.605Z,0.25
2022-12-01T00:09:57.275Z,0.25
2022-12-01T00:12:57.978Z,0.187
2022-12-01T00:15:56.727Z,0.187
2022-12-01T00:18:57.589Z,0.187
2022-12-01T00:21:57.707Z,0.125
2022-12-01T00:24:56.982Z,0.125
2022-12-01T00:27:57.359Z,0.125
2022-12-01T00:30:57.811Z,0.125
2022-12-01T00:33:57.097Z,0.187
2022-12-01T00:36:57.520Z,0.187
2022-12-01T00:39:57.014Z,0.125
2022-12-01T00:42:57.280Z,0.125
2022-12-01T00:45:57.722Z,0.125
2022-12-01T00:48:57.883Z,0.125
2022-12-01T00:51:57.342Z,0.125
2022-12-01T00:54:56.925Z,0.125
2022-12-01T00:57:56.926Z,0.125
2022-12-01T01:00:58.247Z,0.187
2022-12-01T01:03:57.747Z,0.187
2022-12-01T01:06:57.309Z,0.187
2022-12-01T01:09:57.602Z,0.187
2022-12-01T01:12:56.693Z,0.187
2022-12-01T01:15:57.496Z,0.187
2022-12-01T01:18:57.549Z,0.187
2022-12-01T01:21:57.440Z,0.187
2022-12-01T01:24:57.260Z,0.187
2022-12-01T01:27:56.635Z,0.125
2022-12-01T01:30:59.387Z,0.125
2022-12-01T01:33:58.142Z,0.125
2022-12-01T01:36:58.270Z,0.125
2022-12-01T01:39:58.140Z,0.125
2022-12-01T01:42:57.406Z,0.187
2022-12-01T01:45:58.064Z,0.187
2022-12-01T01:48:57.496Z,0.187
2022-12-01T01:51:57.177Z,0.125
2022-12-01T01:54:57.577Z,0.125
2022-12-01T01:57:57.101Z,0.125
2022-12-01T02:00:57.858Z,0.125
2022-12-01T02:03:57.436Z,0.125
2022-12-01T02:06:56.872Z,0.187
2022-12-01T02:09:57.537Z,0.187
2022-12-01T02:12:56.947Z,0.187
2022-12-01T02:15:57.366Z,0.187
2022-12-01T02:18:56.889Z,0.187
2022-12-01T02:21:57.358Z,0.187
2022-12-01T02:24:57.545Z,0.125
2022-12-01T02:27:57.243Z,0.062
2022-12-01T02:30:57.864Z,0.125
2022-12-01T02:33:57.391Z,0.125
2022-12-01T02:36:57.667Z,0.062
2022-12-01T02:39:57.722Z,0.0
2022-12-01T02:42:57.069Z,0.0
2022-12-01T02:45:57.026Z,0.0
2022-12-01T02:48:57.321Z,0.0
2022-12-01T02:51:57.975Z,0.0
2022-12-01T02:54:57.436Z,0.0
2022-12-01T02:57:57.201Z,-0.062
2022-12-01T03:00:57.464Z,-0.062
2022-12-01T03:03:58.001Z,-0.062
2022-12-01T03:06:57.831Z,-0.125
2022-12-01T03:09:57.089Z,-0.125
2022-12-01T03:12:57.085Z,-0.125
2022-12-01T03:15:57.924Z,-0.125
2022-12-01T03:18:57.662Z,-0.062
2022-12-01T03:21:58.139Z,-0.062
2022-12-01T03:24:57.085Z,-0.062
2022-12-01T03:28:20.240Z,-0.062
2022-12-01T03:30:57.016Z,-0.062
2022-12-01T03:33:57.724Z,-0.062
2022-12-01T03:36:57.146Z,0.0
2022-12-01T03:40:00.344Z,0.0
2022-12-01T03:42:57.859Z,0.0
2022-12-01T03:45:57.236Z,-0.062
2022-12-01T03:48:57.550Z,-0.062
2022-12-01T03:51:57.106Z,-0.062
2022-12-01T03:54:57.080Z,0.0
2022-12-01T03:57:57.269Z,-0.062
2022-12-01T04:00:58.429Z,0.0
2022-12-01T04:03:57.547Z,0.0
2022-12-01T04:06:57.349Z,0.062
2022-12-01T04:09:57.187Z,0.062
2022-12-01T04:12:56.839Z,0.062
2022-12-01T04:15:57.574Z,0.125
2022-12-01T04:18:57.428Z,0.125
2022-12-01T04:21:58.002Z,0.125
2022-12-01T04:24:57.385Z,0.125
2022-12-01T04:27:57.957Z,0.062
2022-12-01T04:30:58.067Z,0.125
2022-12-01T04:33:57.686Z,0.187
2022-12-01T04:36:57.853Z,0.187
2022-12-01T04:39:57.322Z,0.187
2022-12-01T04:42:57.218Z,0.187
2022-12-01T04:45:57.605Z,0.25
2022-12-01T04:48:57.610Z,0.312
2022-12-01T04:51:57.457Z,0.25
2022-12-01T04:54:57.574Z,0.312
2022-12-01T04:57:57.581Z,0.312
2022-12-01T05:00:58.487Z,0.375
2022-12-01T05:03:58.919Z,0.375
2022-12-01T05:06:57.037Z,0.375
2022-12-01T05:09:57.442Z,0.375
2022-12-01T05:12:57.845Z,0.375
2022-12-01T05:15:58.303Z,0.375
2022-12-01T05:18:57.611Z,0.437
2022-12-01T05:21:58.565Z,0.375
2022-12-01T05:24:57.879Z,0.375
2022-12-01T05:27:57.277Z,0.437
2022-12-01T05:30:57.344Z,0.437
2022-12-01T05:33:57.233Z,0.437
2022-12-01T05:36:57.840Z,0.437
2022-12-01T05:39:57.761Z,0.375
2022-12-01T05:42:57.315Z,0.375
2022-12-01T05:45:57.803Z,0.375
2022-12-01T05:48:57.782Z,0.375
2022-12-01T05:51:57.736Z,0.375
2022-12-01T05:54:57.307Z,0.375
2022-12-01T05:57:57.823Z,0.437
2022-12-01T06:00:58.394Z,0.437
2022-12-01T06:03:58.243Z,0.375
2022-12-01T06:06:57.769Z,0.375
2022-12-01T06:09:57.267Z,0.375
2022-12-01T06:12:57.930Z,0.437
2022-12-01T06:15:57.319Z,0.375
2022-12-01T06:18:57.450Z,0.437
2022-12-01T06:21:58.147Z,0.375
2022-12-01T06:24:57.827Z,0.437
2022-12-01T06:27:57.899Z,0.437
2022-12-01T06:31:02.924Z,0.437
2022-12-01T06:33:56.675Z,0.437
2022-12-01T06:36:57.287Z,0.437
2022-12-01T06:39:58.183Z,0.5
2022-12-01T06:42:58.206Z,0.5
2022-12-01T06:46:02.103Z,0.5
2022-12-01T06:48:57.889Z,0.5
2022-12-01T06:51:59.174Z,0.5
2022-12-01T06:54:57.825Z,0.437
2022-12-01T06:57:58.293Z,0.437
2022-12-01T07:00:57.557Z,0.5
2022-12-01T07:03:57.018Z,0.5
2022-12-01T07:06:57.149Z,0.437
2022-12-01T07:09:57.072Z,0.437
2022-12-01T07:12:57.015Z,0.437
2022-12-01T07:15:56.958Z,0.437
2022-12-01T07:18:57.935Z,0.437
2022-12-01T07:21:57.341Z,0.562
2022-12-01T07:24:56.889Z,0.562
2022-12-01T07:27:57.137Z,0.5
2022-12-01T07:30:57.283Z,0.562
2022-12-01T07:33:57.488Z,0.562
2022-12-01T07:36:57.628Z,0.562
2022-12-01T07:39:58.549Z,0.625
2022-12-01T07:42:57.499Z,0.625
2022-12-01T07:45:57.886Z,0.625
2022-12-01T07:48:57.185Z,0.625
2022-12-01T07:51:58.583Z,0.687
2022-12-01T07:54:57.444Z,0.687
2022-12-01T07:57:57.521Z,0.75
2022-12-01T08:00:57.028Z,0.812
2022-12-01T08:03:58.476Z,0.75
2022-12-01T08:06:57.213Z,0.812
2022-12-01T08:09:57.906Z,0.812
2022-12-01T08:12:57.038Z,0.812
2022-12-01T08:15:57.726Z,0.812
2022-12-01T08:18:57.654Z,0.875
2022-12-01T08:21:57.071Z,0.875
2022-12-01T08:24:57.181Z,0.875
2022-12-01T08:27:57.581Z,0.875
2022-12-01T08:30:57.893Z,0.875
2022-12-01T08:33:57.808Z,1.0
2022-12-01T08:36:58.499Z,1.062
2022-12-01T08:39:57.155Z,1.062
2022-12-01T08:42:57.345Z,0.937
2022-12-01T08:45:57.701Z,1.0
2022-12-01T08:48:58.086Z,1.062
2022-12-01T08:51:57.488Z,1.062
2022-12-01T08:54:58.069Z,1.125
2022-12-01T08:58:00.442Z,1.125
2022-12-01T09:00:58.836Z,1.187
2022-12-01T09:03:57.339Z,1.187
2022-12-01T09:06:57.307Z,1.25
2022-12-01T09:09:57.287Z,1.25
2022-12-01T09:12:57.781Z,1.312
2022-12-01T09:15:57.204Z,1.312
2022-12-01T09:18:57.210Z,1.25
2022-12-01T09:21:57.142Z,1.25
2022-12-01T09:24:58.212Z,1.312
2022-12-01T09:27:57.471Z,1.312
2022-12-01T09:30:57.868Z,1.375
2022-12-01T09:33:57.481Z,1.375
2022-12-01T09:36:58.691Z,1.437
2022-12-01T09:39:57.020Z,1.5
2022-12-01T09:42:57.531Z,1.375
2022-12-01T09:45:57.794Z,1.312
2022-12-01T09:48:57.003Z,1.5
2022-12-01T09:51:57.130Z,1.5
2022-12-01T09:54:58.116Z,1.5
2022-12-01T09:57:57.680Z,1.562
2022-12-01T10:00:58.026Z,1.562
2022-12-01T10:03:58.099Z,1.562
2022-12-01T10:06:57.761Z,1.812
2022-12-01T10:09:58.175Z,1.875
2022-12-01T10:12:57.066Z,1.75
2022-12-01T10:16:02.823Z,1.875
2022-12-01T10:18:57.949Z,1.75
2022-12-01T10:21:57.666Z,1.75
2022-12-01T10:24:57.360Z,2.062
2022-12-01T10:27:57.997Z,2.125
2022-12-01T10:30:57.977Z,2.0
2022-12-01T10:33:57.595Z,1.875
2022-12-01T10:36:57.406Z,1.875
2022-12-01T10:39:57.579Z,1.875
2022-12-01T10:42:56.880Z,1.875
2022-12-01T10:45:58.163Z,1.875
2022-12-01T10:48:58.684Z,1.875
2022-12-01T10:51:57.628Z,2.0
2022-12-01T10:54:57.764Z,2.0
2022-12-01T10:57:57.779Z,2.062
2022-12-01T11:01:09.495Z,2.125
2022-12-01T11:04:16.334Z,2.062
2022-12-01T11:06:57.492Z,2.0
2022-12-01T11:09:57.856Z,2.0
2022-12-01T11:12:57.455Z,1.937
2022-12-01T11:15:57.994Z,2.062
2022-12-01T11:18:57.512Z,2.062
2022-12-01T11:21:57.887Z,2.062
2022-12-01T11:24:57.375Z,2.062
2022-12-01T11:27:57.677Z,2.125
2022-12-01T11:30:57.935Z,2.125
2022-12-01T11:33:57.182Z,2.312
2022-12-01T11:36:58.033Z,2.187
2022-12-01T11:39:57.697Z,2.125
2022-12-01T11:42:57.393Z,2.25
2022-12-01T11:45:57.955Z,2.25
2022-12-01T11:48:57.700Z,2.25
2022-12-01T11:51:57.833Z,2.187
2022-12-01T11:54:57.106Z,2.25
2022-12-01T11:57:57.121Z,2.25
2022-12-01T12:00:58.124Z,2.312
2022-12-01T12:03:57.354Z,2.312
2022-12-01T12:06:57.505Z,2.312
2022-12-01T12:09:57.816Z,2.312
2022-12-01T12:12:57.178Z,2.625
2022-12-01T12:15:57.640Z,2.5
2022-12-01T12:18:57.256Z,2.5
2022-12-01T12:21:57.836Z,2.437
2022-12-01T12:24:57.352Z,2.5
2022-12-01T12:27:57.263Z,2.5
2022-12-01T12:30:57.729Z,2.562
2022-12-01T12:33:57.341Z,2.5
2022-12-01T12:36:57.236Z,2.5
2022-12-01T12:39:58.386Z,2.5
2022-12-01T12:42:57.470Z,2.5
2022-12-01T12:45:57.727Z,2.562
2022-12-01T12:49:18.711Z,2.562
2022-12-01T12:51:57.501Z,2.562
2022-12-01T12:54:57.720Z,2.5
2022-12-01T12:57:56.756Z,2.562
2022-12-01T13:00:58.307Z,2.625
2022-12-01T13:03:57.445Z,2.687
2022-12-01T13:06:58.046Z,2.687
2022-12-01T13:10:00.645Z,2.625
2022-12-01T13:12:57.171Z,2.687
2022-12-01T13:15:58.167Z,2.75
2022-12-01T13:18:57.572Z,2.625
2022-12-01T13:21:58.257Z,2.562
2022-12-01T13:24:57.602Z,2.562
2022-12-01T13:27:57.465Z,2.562
2022-12-01T13:30:58.595Z,2.562
2022-12-01T13:33:58.190Z,2.687
2022-12-01T13:36:57.347Z,2.687
2022-12-01T13:39:57.466Z,2.625
2022-12-01T13:42:57.286Z,2.562
2022-12-01T13:45:57.204Z,2.625
2022-12-01T13:48:57.107Z,2.625
2022-12-01T13:52:24.656Z,2.625
2022-12-01T13:55:48.629Z,2.625
2022-12-01T13:58:06.457Z,2.562
2022-12-01T14:00:57.657Z,2.562
2022-12-01T14:03:58.052Z,2.5
2022-12-01T14:06:56.971Z,2.562
2022-12-01T14:09:57.275Z,2.625
2022-12-01T14:12:57.964Z,2.625
2022-12-01T14:15:58.891Z,2.562
2022-12-01T14:18:57.757Z,2.562
2022-12-01T14:21:57.394Z,2.562
2022-12-01T14:24:57.810Z,2.625
2022-12-01T14:27:58.179Z,2.625
2022-12-01T14:30:57.811Z,2.625
2022-12-01T14:33:57.368Z,2.625
2022-12-01T14:36:57.583Z,2.5
2022-12-01T14:39:57.030Z,2.5
2022-12-01T14:42:57.462Z,2.5
2022-12-01T14:45:57.743Z,2.5
2022-12-01T14:48:58.500Z,2.5
2022-12-01T14:51:57.687Z,2.5
2022-12-01T14:54:58.256Z,2.437
2022-12-01T14:57:58.019Z,2.5
2022-12-01T15:00:57.830Z,2.562
2022-12-01T15:03:56.944Z,2.562
2022-12-01T15:06:58.278Z,2.5
2022-12-01T15:09:57.316Z,2.562
2022-12-01T15:12:58.301Z,2.437
2022-12-01T15:15:57.721Z,2.437
2022-12-01T15:18:57.090Z,2.5
2022-12-01T15:21:57.807Z,2.5
2022-12-01T15:24:58.034Z,2.5
2022-12-01T15:27:57.334Z,2.5
2022-12-01T15:30:57.476Z,2.437
2022-12-01T15:33:57.348Z,2.437
2022-12-01T15:36:57.258Z,2.437
2022-12-01T15:40:10.077Z,2.437
2022-12-01T15:42:57.963Z,2.437
2022-12-01T15:45:58.077Z,2.375
2022-12-01T15:48:57.342Z,2.375
2022-12-01T15:51:58.154Z,2.375
2022-12-01T15:54:57.271Z,2.375
2022-12-01T15:57:58.201Z,2.312
2022-12-01T16:00:58.732Z,2.312
2022-12-01T16:03:58.381Z,2.312
2022-12-01T16:06:57.657Z,2.312
2022-12-01T16:09:57.879Z,2.25
2022-12-01T16:12:58.592Z,2.187
2022-12-01T16:15:57.348Z,2.187
2022-12-01T16:18:58.711Z,2.187
2022-12-01T16:21:57.762Z,2.187
2022-12-01T16:24:57.333Z,2.125
2022-12-01T16:27:57.938Z,2.187
2022-12-01T16:30:57.677Z,2.187
2022-12-01T16:33:58.143Z,2.125
2022-12-01T16:36:57.895Z,2.187
2022-12-01T16:39:57.457Z,2.125
2022-12-01T16:42:57.710Z,2.125
2022-12-01T16:45:58.238Z,2.062
2022-12-01T16:48:57.841Z,2.062
2022-12-01T16:51:59.261Z,2.062
2022-12-01T16:54:58.573Z,2.062
2022-12-01T16:57:57.564Z,2.062
2022-12-01T17:00:58.148Z,2.062
2022-12-01T17:03:57.770Z,2.062
2022-12-01T17:06:57.393Z,2.125
2022-12-01T17:09:57.716Z,2.125
2022-12-01T17:12:57.022Z,2.062
2022-12-01T17:15:57.527Z,2.062
2022-12-01T17:18:57.570Z,2.062
2022-12-01T17:21:57.544Z,2.062
2022-12-01T17:24:57.790Z,2.062
2022-12-01T17:27:57.168Z,2.062
2022-12-01T17:30:57.565Z,2.062
2022-12-01T17:33:57.781Z,2.062
2022-12-01T17:36:58.025Z,2.062
2022-12-01T17:39:58.332Z,2.062
2022-12-01T17:42:56.942Z,2.062
2022-12-01T17:45:57.180Z,2.0
2022-12-01T17:48:57.158Z,2.062
2022-12-01T17:51:57.142Z,2.062
2022-12-01T17:54:57.641Z,2.062
2022-12-01T17:57:57.859Z,2.0
2022-12-01T18:01:30.158Z,2.0
2022-12-01T18:03:57.109Z,2.0
2022-12-01T18:06:58.112Z,2.062
2022-12-01T18:09:57.698Z,2.062
2022-12-01T18:12:56.991Z,2.062
2022-12-01T18:15:57.695Z,2.062
2022-12-01T18:18:56.959Z,2.125
2022-12-01T18:21:57.550Z,2.062
2022-12-01T18:24:57.660Z,2.062
2022-12-01T18:27:57.905Z,2.062
2022-12-01T18:30:57.849Z,2.062
2022-12-01T18:33:57.403Z,2.062
2022-12-01T18:36:58.715Z,2.062
2022-12-01T18:39:57.604Z,2.0
2022-12-01T18:42:57.932Z,2.0
2022-12-01T18:45:57.173Z,1.937
2022-12-01T18:48:57.540Z,1.937
2022-12-01T18:51:57.677Z,2.0
2022-12-01T18:54:57.929Z,2.0
2022-12-01T18:57:57.201Z,1.937
2022-12-01T19:00:57.539Z,1.875
2022-12-01T19:03:57.727Z,1.875
2022-12-01T19:06:57.891Z,1.875
2022-12-01T19:09:57.644Z,1.875
2022-12-01T19:12:57.026Z,1.875
2022-12-01T19:15:57.794Z,1.937
2022-12-01T19:18:57.464Z,1.937
2022-12-01T19:21:57.707Z,1.937
2022-12-01T19:25:04.057Z,1.875
2022-12-01T19:27:58.089Z,1.937
2022-12-01T19:30:57.681Z,1.937
2022-12-01T19:33:58.571Z,1.937
2022-12-01T19:36:57.561Z,2.0
2022-12-01T19:39:57.559Z,2.0
2022-12-01T19:42:57.466Z,2.062
2022-12-01T19:45:58.286Z,2.062
2022-12-01T19:48:58.043Z,2.0
2022-12-01T19:51:57.316Z,2.0
2022-12-01T19:54:58.121Z,2.0
2022-12-01T19:57:57.932Z,2.0
2022-12-01T20:00:57.709Z,2.062
2022-12-01T20:03:57.181Z,2.062
2022-12-01T20:06:58.059Z,2.125
2022-12-01T20:09:57.708Z,2.125
2022-12-01T20:12:57.297Z,2.125
2022-12-01T20:15:57.065Z,2.125
2022-12-01T20:18:57.371Z,2.0
2022-12-01T20:21:57.916Z,2.062
2022-12-01T20:24:57.447Z,2.125
2022-12-01T20:27:57.074Z,2.125
2022-12-01T20:30:58.481Z,2.125
2022-12-01T20:33:57.212Z,2.125
2022-12-01T20:36:57.640Z,2.125
2022-12-01T20:39:57.442Z,2.187
2022-12-01T20:42:58.110Z,2.125
2022-12-01T20:45:58.120Z,2.125
2022-12-01T20:48:57.532Z,2.125
2022-12-01T20:51:58.481Z,2.125
2022-12-01T20:54:57.448Z,2.125
2022-12-01T20:57:57.221Z,2.0
2022-12-01T21:00:58.000Z,2.062
2022-12-01T21:03:57.323Z,2.125
2022-12-01T21:06:57.847Z,2.125
2022-12-01T21:09:57.422Z,2.125
2022-12-01T21:12:58.499Z,2.125
2022-12-01T21:16:03.588Z,2.062
2022-12-01T21:18:58.096Z,2.062
2022-12-01T21:21:58.024Z,2.125
2022-12-01T21:24:57.568Z,2.125
2022-12-01T21:27:58.229Z,2.125
2022-12-01T21:30:58.482Z,2.062
2022-12-01T21:33:57.970Z,2.125
2022-12-01T21:36:57.546Z,2.125
2022-12-01T21:39:57.660Z,2.125
2022-12-01T21:43:03.232Z,2.125
2022-12-01T21:45:57.896Z,2.125
2022-12-01T21:48:57.980Z,2.125
2022-12-01T21:51:58.327Z,2.062
2022-12-01T21:54:57.780Z,2.125
2022-12-01T21:57:57.513Z,2.125
2022-12-01T22:00:57.816Z,2.125
2022-12-01T22:04:01.684Z,2.125
2022-12-01T22:06:57.272Z,2.125
2022-12-01T22:09:57.856Z,2.125
2022-12-01T22:12:57.654Z,2.125
2022-12-01T22:15:57.372Z,2.062
2022-12-01T22:18:57.612Z,2.125
2022-12-01T22:21:57.930Z,2.125
2022-12-01T22:24:57.684Z,2.125
2022-12-01T22:27:58.063Z,2.125
2022-12-01T22:30:58.359Z,2.125
2022-12-01T22:34:02.684Z,2.125
2022-12-01T22:36:58.161Z,2.125
2022-12-01T22:39:56.958Z,2.125
2022-12-01T22:42:57.869Z,2.125
2022-12-01T22:45:57.536Z,2.187
2022-12-01T22:48:57.980Z,2.187
2022-12-01T22:51:57.751Z,2.125
2022-12-01T22:54:57.607Z,2.125
2022-12-01T22:57:57.547Z,2.125
2022-12-01T23:00:58.179Z,2.125
2022-12-01T23:03:57.311Z,2.125
2022-12-01T23:06:56.950Z,2.125
2022-12-01T23:09:57.967Z,2.125
2022-12-01T23:12:58.024Z,2.125
2022-12-01T23:15:57.574Z,2.125
2022-12-01T23:18:57.653Z,2.125
2022-12-01T23:21:57.172Z,2.125
2022-12-01T23:24:57.464Z,2.125
2022-12-01T23:27:57.153Z,2.125
2022-12-01T23:30:57.868Z,2.125
2022-12-01T23:33:57.127Z,2.125
2022-12-01T23:36:57.993Z,2.125
2022-12-01T23:39:57.379Z,2.125
2022-12-01T23:42:57.429Z,2.125
2022-12-01T23:45:57.226Z,2.125
2022-12-01T23:48:57.502Z,2.125
2022-12-01T23:51:58.097Z,2.125
2022-12-01T23:54:57.123Z,2.125
2022-12-01T23:57:57.049Z,2.125
